Terminal Aerodrome Forecast
Issued by NWS Omaha/Valley, NE

Home | Current Version | Previous Version | Text Only | Print | Product List | Glossary On
Versions: 1 2 3 4 5 6 7 8 9 10 11 12 13
000
FTUS43 KOAX 250520
TAFOFK
TAF
KOFK 250520Z 2506/2606 34007KT P6SM FEW090 FEW250
     FM251000 36008KT P6SM VCSH BKN110
     FM251500 01013KT 6SM SHRA BKN010 OVC080
     FM251800 36012KT 4SM -SHRA BR BKN010 OVC020
     FM252000 35012KT 2SM -SHRA BR BKN008 OVC025
     FM260000 34015KT P6SM BKN008 OVC015=

USA.gov is the U.S. government's official web portal to all federal, state and local government web resources and services.